createdAt,value
2022-09-10T00:02:10.438Z,80.58
2022-09-10T00:04:39.484Z,80.90
2022-09-10T00:07:09.415Z,81.06
2022-09-10T00:09:39.313Z,81.04
2022-09-10T00:12:09.179Z,81.44
2022-09-10T00:14:45.459Z,82.31
2022-09-10T00:17:15.141Z,81.62
2022-09-10T00:19:44.196Z,81.74
2022-09-10T00:22:13.882Z,81.65
2022-09-10T00:24:42.880Z,81.49
2022-09-10T00:27:12.027Z,81.22
2022-09-10T00:29:41.080Z,81.35
2022-09-10T00:32:12.513Z,81.09
2022-09-10T00:34:41.677Z,81.42
2022-09-10T00:37:10.936Z,81.17
2022-09-10T00:39:45.162Z,81.54
2022-09-10T00:42:14.358Z,81.71
2022-09-10T00:45:08.446Z,82.88
2022-09-10T00:47:49.460Z,83.45
2022-09-10T00:50:25.381Z,83.86
2022-09-10T00:52:57.705Z,83.75
2022-09-10T00:55:32.283Z,83.20
2022-09-10T00:58:03.468Z,83.27
2022-09-10T01:00:32.973Z,83.19
2022-09-10T01:03:05.736Z,84.06
2022-09-10T01:08:24.509Z,83.90
2022-09-10T01:11:08.633Z,84.94
2022-09-10T01:13:54.758Z,85.07
2022-09-10T01:16:34.375Z,86.07
2022-09-10T01:19:24.059Z,86.51
2022-09-10T01:22:02.949Z,85.84
2022-09-10T01:24:52.590Z,86.22
2022-09-10T01:27:46.716Z,85.50
2022-09-10T01:30:20.221Z,85.06
2022-09-10T01:33:06.133Z,85.71
2022-09-10T01:35:44.865Z,85.03
2022-09-10T01:38:19.246Z,84.82
2022-09-10T01:40:55.188Z,84.61
2022-09-10T01:43:29.064Z,84.66
2022-09-10T01:46:14.343Z,85.08
2022-09-10T01:49:10.646Z,85.83
2022-09-10T01:51:54.772Z,85.99
2022-09-10T01:54:40.933Z,86.53
2022-09-10T01:57:20.695Z,87.05
2022-09-10T01:59:59.559Z,88.09
2022-09-10T02:02:39.393Z,88.12
2022-09-10T02:05:11.375Z,86.77
2022-09-10T02:07:41.516Z,85.77
2022-09-10T02:10:12.909Z,86.05
2022-09-10T02:12:47.455Z,84.83
2022-09-10T02:15:42.316Z,85.71
2022-09-10T02:18:27.361Z,85.49
2022-09-10T02:20:58.451Z,86.33
2022-09-10T02:23:38.899Z,87.26
2022-09-10T02:26:08.581Z,86.40
2022-09-10T02:28:38.399Z,86.57
2022-09-10T02:31:10.194Z,87.04
2022-09-10T02:33:39.028Z,86.96
2022-09-10T02:36:08.612Z,85.97
2022-09-10T02:38:43.046Z,86.64
2022-09-10T02:41:13.654Z,86.58
2022-09-10T02:43:44.823Z,86.43
2022-09-10T02:46:15.982Z,86.92
2022-09-10T02:48:45.090Z,87.07
2022-09-10T02:51:14.369Z,86.64
2022-09-10T02:53:43.886Z,86.61
2022-09-10T02:56:15.373Z,86.88
2022-09-10T02:58:45.211Z,86.82
2022-09-10T03:01:24.095Z,86.93
2022-09-10T03:04:02.178Z,87.01
2022-09-10T03:06:32.702Z,86.55
2022-09-10T03:09:01.722Z,86.42
2022-09-10T03:11:31.662Z,86.24
2022-09-10T03:14:01.334Z,85.94
2022-09-10T03:16:35.395Z,85.76
2022-09-10T03:19:05.957Z,85.46
2022-09-10T03:21:35.490Z,84.83
2022-09-10T03:24:12.010Z,85.36
2022-09-10T03:26:48.521Z,84.53
2022-09-10T03:29:18.964Z,84.43
2022-09-10T03:31:51.134Z,84.53
2022-09-10T03:34:22.260Z,84.04
2022-09-10T03:36:51.539Z,83.76
2022-09-10T03:39:21.716Z,83.87
2022-09-10T03:41:55.940Z,83.87
2022-09-10T03:44:24.999Z,84.08
2022-09-10T03:46:56.175Z,84.06
2022-09-10T03:49:25.405Z,83.99
2022-09-10T03:51:55.496Z,83.72
2022-09-10T03:54:31.271Z,83.54
2022-09-10T03:57:02.899Z,83.20
2022-09-10T03:59:39.216Z,82.62
2022-09-10T04:02:10.882Z,82.47
2022-09-10T04:04:40.356Z,82.38
2022-09-10T04:07:11.921Z,82.21
2022-09-10T04:09:41.351Z,82.58
2022-09-10T04:12:10.618Z,82.52
2022-09-10T04:14:46.353Z,82.73
2022-09-10T04:17:19.412Z,82.12
2022-09-10T04:19:53.643Z,82.34
2022-09-10T04:22:28.958Z,82.09
2022-09-10T04:24:59.816Z,82.04
2022-09-10T04:27:30.521Z,81.45
2022-09-10T04:29:59.893Z,81.17
2022-09-10T04:32:31.086Z,80.91
2022-09-10T04:35:02.241Z,80.50
2022-09-10T04:37:33.775Z,80.41
2022-09-10T04:40:03.775Z,80.05
2022-09-10T04:42:37.263Z,79.70
2022-09-10T04:45:08.472Z,79.26
2022-09-10T04:47:46.298Z,79.28
2022-09-10T04:50:16.230Z,78.62
2022-09-10T04:53:06.079Z,78.46
2022-09-10T04:55:35.572Z,77.81
2022-09-10T04:58:05.579Z,77.30
2022-09-10T05:00:40.132Z,76.28
2022-09-10T05:03:12.783Z,75.51
2022-09-10T05:05:45.726Z,75.90
2022-09-10T05:08:15.057Z,75.44
2022-09-10T05:10:50.628Z,75.45
2022-09-10T05:13:20.091Z,75.19
2022-09-10T05:15:49.217Z,74.34
2022-09-10T05:18:20.485Z,74.03
2022-09-10T05:20:50.093Z,73.72
2022-09-10T05:23:19.750Z,73.66
2022-09-10T05:28:30.654Z,72.99
2022-09-10T05:31:05.386Z,72.94
2022-09-10T05:33:40.273Z,72.47
2022-09-10T05:36:11.737Z,71.83
2022-09-10T05:38:42.894Z,71.06
2022-09-10T05:41:13.163Z,70.91
2022-09-10T05:43:46.914Z,70.68
2022-09-10T05:46:16.735Z,70.78
2022-09-10T05:48:53.759Z,69.95
2022-09-10T05:51:32.533Z,69.82
2022-09-10T05:54:05.452Z,69.55
2022-09-10T05:56:35.797Z,68.96
2022-09-10T05:59:10.229Z,68.32
2022-09-10T06:01:42.420Z,68.69
2022-09-10T06:04:15.158Z,68.45
2022-09-10T06:06:49.989Z,68.34
2022-09-10T06:09:24.534Z,67.31
2022-09-10T06:12:01.367Z,67.54
2022-09-10T06:14:32.051Z,66.95
2022-09-10T06:17:06.439Z,66.45
2022-09-10T06:19:37.695Z,65.44
2022-09-10T06:22:13.222Z,65.04
2022-09-10T06:24:53.353Z,65.01
2022-09-10T06:27:29.962Z,64.11
2022-09-10T06:29:59.800Z,63.84
2022-09-10T06:32:28.901Z,63.64
2022-09-10T06:35:00.441Z,63.78
2022-09-10T06:37:34.706Z,63.50
2022-09-10T06:40:08.622Z,62.86
2022-09-10T06:42:38.540Z,62.30
2022-09-10T06:45:27.917Z,61.53
2022-09-10T06:48:48.950Z,60.15
2022-09-10T06:51:15.590Z,59.32
2022-09-10T06:53:45.963Z,58.95
2022-09-10T06:56:17.703Z,58.44
2022-09-10T06:58:47.741Z,58.05
2022-09-10T07:01:19.210Z,57.28
2022-09-10T07:04:00.278Z,56.50
2022-09-10T07:06:34.776Z,56.16
2022-09-10T07:09:21.423Z,56.28
2022-09-10T07:12:01.567Z,55.84
2022-09-10T07:14:34.529Z,54.95
2022-09-10T07:17:07.182Z,54.85
2022-09-10T07:19:38.423Z,54.52
2022-09-10T07:22:16.785Z,53.77
2022-09-10T07:24:47.187Z,54.14
2022-09-10T07:27:55.739Z,53.14
2022-09-10T07:30:26.013Z,52.87
2022-09-10T07:33:02.026Z,52.44
2022-09-10T07:35:33.241Z,52.80
2022-09-10T07:38:05.342Z,51.69
2022-09-10T07:40:37.594Z,52.56
2022-09-10T07:43:08.633Z,52.13
2022-09-10T07:45:39.517Z,51.72
2022-09-10T07:48:15.804Z,51.06
2022-09-10T07:50:45.037Z,50.57
2022-09-10T07:53:20.487Z,50.26
2022-09-10T07:55:59.445Z,49.68
2022-09-10T07:58:31.398Z,49.52
2022-09-10T08:01:01.914Z,50.00
2022-09-10T08:03:32.172Z,49.84
2022-09-10T08:06:03.282Z,49.44
2022-09-10T08:08:41.374Z,49.28
2022-09-10T08:11:17.081Z,49.90
2022-09-10T08:13:50.838Z,50.35
2022-09-10T08:16:29.623Z,50.25
2022-09-10T08:19:05.886Z,50.23
2022-09-10T08:21:36.790Z,49.97
2022-09-10T08:24:09.628Z,49.15
2022-09-10T08:26:40.626Z,49.77
2022-09-10T08:29:10.176Z,49.36
2022-09-10T08:31:39.220Z,49.59
2022-09-10T08:34:15.581Z,49.37
2022-09-10T08:36:50.749Z,49.09
2022-09-10T08:39:21.964Z,49.43
2022-09-10T08:41:57.510Z,49.09
2022-09-10T08:44:42.686Z,48.32
2022-09-10T08:47:23.845Z,48.24
2022-09-10T08:50:00.113Z,48.65
2022-09-10T08:52:39.721Z,48.24
2022-09-10T08:55:33.910Z,48.06
2022-09-10T08:58:12.536Z,47.12
2022-09-10T09:00:46.278Z,47.23
2022-09-10T09:03:26.952Z,47.38
2022-09-10T09:06:00.079Z,47.31
2022-09-10T09:08:47.873Z,46.96
2022-09-10T09:11:37.750Z,47.13
2022-09-10T09:14:33.144Z,47.00
2022-09-10T09:17:20.311Z,46.65
2022-09-10T09:20:01.373Z,46.91
2022-09-10T09:22:41.694Z,46.52
2022-09-10T09:25:24.744Z,46.18
2022-09-10T09:27:58.019Z,46.27
2022-09-10T09:30:37.894Z,46.16
2022-09-10T09:33:16.339Z,46.22
2022-09-10T09:35:50.358Z,46.53
2022-09-10T09:38:25.558Z,46.34
2022-09-10T09:41:00.956Z,45.70
2022-09-10T09:43:46.738Z,45.75
2022-09-10T09:46:18.840Z,45.93
2022-09-10T09:49:00.129Z,45.31
2022-09-10T09:51:34.947Z,45.51
2022-09-10T09:54:46.478Z,44.74
2022-09-10T09:57:02.481Z,45.16
2022-09-10T09:59:40.179Z,45.11
2022-09-10T10:02:15.602Z,44.55
2022-09-10T10:04:57.257Z,45.31
2022-09-10T10:07:31.970Z,44.91
2022-09-10T10:10:02.804Z,45.71
2022-09-10T10:12:34.093Z,45.04
2022-09-10T10:15:05.493Z,44.74
2022-09-10T10:17:41.678Z,44.67
2022-09-10T10:20:17.864Z,44.73
2022-09-10T10:22:48.492Z,44.40
2022-09-10T10:25:42.129Z,44.38
2022-09-10T10:28:22.130Z,43.86
2022-09-10T10:31:00.801Z,43.86
2022-09-10T10:33:35.063Z,43.87
2022-09-10T10:36:14.189Z,44.02
2022-09-10T10:38:47.514Z,44.00
2022-09-10T10:41:58.198Z,44.04
2022-09-10T10:44:52.803Z,43.69
2022-09-10T10:47:46.420Z,43.46
2022-09-10T10:50:27.890Z,43.08
2022-09-10T10:53:26.449Z,43.14
2022-09-10T10:56:02.718Z,42.86
2022-09-10T10:59:00.722Z,43.13
2022-09-10T11:01:33.598Z,42.00
2022-09-10T11:04:29.022Z,41.63
2022-09-10T11:07:06.814Z,41.31
2022-09-10T11:09:52.597Z,41.31
2022-09-10T11:12:29.530Z,40.92
2022-09-10T11:15:04.010Z,41.11
2022-09-10T11:17:38.948Z,40.88
2022-09-10T11:23:17.919Z,40.95
2022-09-10T11:25:56.016Z,40.76
2022-09-10T11:28:30.714Z,41.27
2022-09-10T11:31:09.449Z,40.15
2022-09-10T11:33:47.120Z,39.71
2022-09-10T11:36:26.892Z,40.24
2022-09-10T11:39:06.738Z,40.34
2022-09-10T11:41:41.744Z,39.75
2022-09-10T11:44:24.442Z,39.91
2022-09-10T11:47:02.945Z,40.03
2022-09-10T11:49:48.087Z,39.18
2022-09-10T11:52:22.575Z,40.17
2022-09-10T11:54:52.170Z,40.02
2022-09-10T11:57:34.493Z,39.59
2022-09-10T12:00:23.503Z,39.62
2022-09-10T12:03:32.400Z,39.53
2022-09-10T12:06:08.386Z,40.01
2022-09-10T12:08:59.500Z,40.13
2022-09-10T12:11:39.077Z,39.89
2022-09-10T12:14:10.413Z,40.03
2022-09-10T12:16:49.762Z,40.31
2022-09-10T12:19:29.814Z,39.98
2022-09-10T12:22:03.700Z,40.19
2022-09-10T12:24:37.054Z,40.12
2022-09-10T12:27:09.699Z,40.09
2022-09-10T12:29:40.515Z,40.21
2022-09-10T12:32:31.912Z,40.66
2022-09-10T12:35:48.674Z,40.81
2022-09-10T12:38:49.800Z,40.71
2022-09-10T12:41:53.701Z,40.74
2022-09-10T12:44:47.012Z,41.06
2022-09-10T12:47:54.850Z,41.80
2022-09-10T12:57:19.941Z,41.33
2022-09-10T13:00:13.801Z,41.31
2022-09-10T13:02:51.235Z,41.62
2022-09-10T13:05:26.397Z,41.99
2022-09-10T13:10:39.709Z,42.09
2022-09-10T13:13:33.162Z,41.93
2022-09-10T13:16:03.922Z,43.04
2022-09-10T13:18:40.518Z,43.24
2022-09-10T13:21:42.039Z,43.17
2022-09-10T13:24:54.408Z,43.59
2022-09-10T13:27:36.223Z,43.27
2022-09-10T13:30:18.529Z,44.12
2022-09-10T13:32:54.220Z,43.94
2022-09-10T13:35:51.562Z,43.93
2022-09-10T13:38:51.941Z,44.57
2022-09-10T13:41:45.737Z,43.75
2022-09-10T13:44:30.546Z,43.29
2022-09-10T13:47:14.991Z,42.86
2022-09-10T13:49:54.056Z,43.34
2022-09-10T13:52:28.843Z,43.37
2022-09-10T13:55:01.171Z,43.44
2022-09-10T13:57:36.114Z,43.29
2022-09-10T14:00:10.149Z,43.69
2022-09-10T14:05:41.087Z,44.43
2022-09-10T14:08:21.684Z,45.98
2022-09-10T14:10:55.630Z,45.66
2022-09-10T14:13:34.551Z,44.97
2022-09-10T14:16:08.890Z,45.85
2022-09-10T14:18:50.512Z,45.43
2022-09-10T14:21:26.549Z,46.36
2022-09-10T14:23:56.919Z,45.81
2022-09-10T14:26:27.511Z,46.07
2022-09-10T14:29:00.610Z,46.49
2022-09-10T14:31:42.981Z,45.99
2022-09-10T14:34:32.334Z,45.32
2022-09-10T14:37:02.808Z,45.16
2022-09-10T14:39:32.149Z,45.40
2022-09-10T14:42:13.503Z,45.68
2022-09-10T14:44:47.799Z,45.38
2022-09-10T14:47:29.438Z,46.24
2022-09-10T14:50:34.150Z,46.13
2022-09-10T14:53:03.327Z,46.22
2022-09-10T14:55:34.418Z,47.49
2022-09-10T15:00:38.604Z,47.25
2022-09-10T15:03:07.703Z,47.26
2022-09-10T15:05:38.914Z,46.79
2022-09-10T15:08:08.117Z,47.08
2022-09-10T15:10:37.241Z,47.21
2022-09-10T15:13:12.262Z,47.38
2022-09-10T15:15:41.460Z,48.13
2022-09-10T15:18:14.056Z,48.56
2022-09-10T15:20:45.197Z,48.28
2022-09-10T15:23:14.689Z,48.42
2022-09-10T15:28:31.609Z,48.65
2022-09-10T15:31:01.009Z,49.27
2022-09-10T15:33:30.258Z,49.41
2022-09-10T15:36:01.515Z,49.91
2022-09-10T15:38:31.009Z,51.00
2022-09-10T15:41:14.927Z,50.26
2022-09-10T15:43:45.551Z,51.58
2022-09-10T15:46:16.405Z,52.22
2022-09-10T15:48:47.027Z,51.40
2022-09-10T15:51:21.007Z,51.93
2022-09-10T15:53:51.821Z,51.87
2022-09-10T15:56:23.769Z,51.91
2022-09-10T15:58:54.662Z,52.09
2022-09-10T16:01:25.313Z,52.23
2022-09-10T16:03:57.506Z,52.52
2022-09-10T16:06:30.535Z,52.55
2022-09-10T16:09:02.681Z,53.01
2022-09-10T16:11:33.182Z,52.97
2022-09-10T16:14:04.874Z,53.31
2022-09-10T16:16:34.366Z,52.77
2022-09-10T16:19:04.329Z,53.70
2022-09-10T16:21:43.841Z,53.77
2022-09-10T16:24:14.779Z,53.92
2022-09-10T16:26:47.407Z,54.15
2022-09-10T16:29:19.062Z,54.08
2022-09-10T16:34:24.816Z,54.07
2022-09-10T16:36:56.277Z,54.79
2022-09-10T16:39:25.420Z,54.94
2022-09-10T16:41:55.602Z,55.13
2022-09-10T16:44:24.697Z,54.90
2022-09-10T16:46:53.785Z,55.34
2022-09-10T16:49:23.130Z,55.54
2022-09-10T16:52:04.905Z,56.34
2022-09-10T16:54:34.178Z,55.72
2022-09-10T16:57:03.281Z,55.76
2022-09-10T16:59:32.792Z,56.44
2022-09-10T17:02:02.017Z,56.17
2022-09-10T17:04:38.240Z,55.77
2022-09-10T17:07:10.181Z,55.82
2022-09-10T17:09:39.662Z,55.86
2022-09-10T17:12:10.178Z,55.81
2022-09-10T17:14:40.369Z,56.12
2022-09-10T17:17:10.863Z,55.93
2022-09-10T17:19:41.528Z,55.81
2022-09-10T17:22:13.253Z,56.21
2022-09-10T17:24:42.592Z,56.85
2022-09-10T17:27:11.817Z,57.86
2022-09-10T17:29:47.716Z,59.19
2022-09-10T17:32:21.749Z,59.46
2022-09-10T17:34:56.159Z,59.01
2022-09-10T17:37:27.662Z,58.90
2022-09-10T17:40:02.007Z,58.74
2022-09-10T17:42:33.196Z,58.39
2022-09-10T17:45:09.804Z,59.54
2022-09-10T17:47:39.205Z,58.96
2022-09-10T17:50:10.817Z,59.95
2022-09-10T17:52:45.386Z,60.18
2022-09-10T17:55:15.433Z,59.89
2022-09-10T17:57:44.657Z,59.67
2022-09-10T18:00:15.281Z,59.79
2022-09-10T18:02:45.054Z,60.19
2022-09-10T18:05:14.772Z,60.45
2022-09-10T18:07:52.320Z,61.18
2022-09-10T18:10:27.118Z,60.71
2022-09-10T18:13:01.693Z,61.10
2022-09-10T18:15:33.164Z,61.16
2022-09-10T18:18:02.635Z,61.31
2022-09-10T18:20:32.609Z,61.74
2022-09-10T18:23:09.135Z,62.18
2022-09-10T18:25:38.522Z,61.95
2022-09-10T18:28:07.694Z,61.74
2022-09-10T18:30:37.755Z,62.25
2022-09-10T18:33:07.791Z,61.78
2022-09-10T18:35:38.115Z,62.51
2022-09-10T18:38:09.816Z,63.06
2022-09-10T18:40:42.189Z,63.07
2022-09-10T18:43:13.262Z,62.74
2022-09-10T18:45:42.432Z,62.97
2022-09-10T18:48:11.623Z,63.14
2022-09-10T18:50:40.996Z,63.20
2022-09-10T18:53:17.967Z,64.19
2022-09-10T18:55:47.797Z,63.76
2022-09-10T18:58:18.768Z,64.86
2022-09-10T19:00:49.022Z,65.46
2022-09-10T19:03:18.653Z,65.72
2022-09-10T19:05:47.811Z,66.51
2022-09-10T19:08:21.316Z,67.28
2022-09-10T19:10:54.503Z,67.44
2022-09-10T19:13:24.865Z,67.82
2022-09-10T19:15:56.892Z,68.91
2022-09-10T19:18:28.194Z,68.99
2022-09-10T19:21:02.933Z,68.34
2022-09-10T19:23:36.247Z,69.47
2022-09-10T19:26:09.757Z,69.13
2022-09-10T19:28:40.235Z,69.36
2022-09-10T19:31:11.142Z,69.93
2022-09-10T19:33:41.331Z,70.12
2022-09-10T19:36:12.594Z,70.79
2022-09-10T19:38:44.284Z,70.58
2022-09-10T19:41:20.228Z,70.72
2022-09-10T19:43:51.360Z,71.00
2022-09-10T19:46:27.863Z,71.29
2022-09-10T19:48:59.239Z,71.44
2022-09-10T19:51:36.145Z,71.59
2022-09-10T19:54:08.516Z,71.47
2022-09-10T19:56:41.997Z,71.58
2022-09-10T19:59:11.511Z,71.70
2022-09-10T20:01:43.346Z,71.97
2022-09-10T20:04:13.674Z,72.50
2022-09-10T20:06:45.526Z,72.67
2022-09-10T20:09:16.773Z,73.03
2022-09-10T20:11:51.077Z,72.67
2022-09-10T20:14:20.563Z,72.85
2022-09-10T20:16:49.760Z,73.43
2022-09-10T20:19:21.558Z,74.07
2022-09-10T20:21:51.325Z,73.96
2022-09-10T20:24:28.422Z,74.36
2022-09-10T20:26:57.857Z,74.18
2022-09-10T20:29:28.368Z,74.27
2022-09-10T20:31:57.477Z,74.27
2022-09-10T20:34:27.248Z,73.99
2022-09-10T20:36:56.294Z,74.24
2022-09-10T20:39:27.780Z,74.43
2022-09-10T20:41:58.088Z,74.66
2022-09-10T20:44:33.811Z,74.31
2022-09-10T20:47:03.164Z,74.83
2022-09-10T20:49:32.321Z,74.58
2022-09-10T20:52:01.527Z,74.68
2022-09-10T20:54:32.511Z,75.64
2022-09-10T20:57:08.316Z,75.31
2022-09-10T20:59:37.365Z,75.19
2022-09-10T21:02:08.006Z,75.29
2022-09-10T21:04:48.336Z,75.36
2022-09-10T21:07:17.565Z,75.62
2022-09-10T21:09:48.994Z,75.54
2022-09-10T21:12:18.263Z,75.22
2022-09-10T21:14:47.347Z,74.89
2022-09-10T21:17:16.885Z,75.16
2022-09-10T21:19:46.932Z,75.47
2022-09-10T21:22:21.747Z,75.43
2022-09-10T21:24:57.948Z,76.05
2022-09-10T21:27:32.474Z,75.03
2022-09-10T21:30:03.543Z,74.71
2022-09-10T21:32:34.242Z,75.43
2022-09-10T21:35:03.259Z,75.36
2022-09-10T21:37:32.396Z,75.93
2022-09-10T21:40:04.514Z,76.67
2022-09-10T21:42:33.767Z,76.27
2022-09-10T21:45:03.056Z,76.91
2022-09-10T21:47:33.541Z,76.54
2022-09-10T21:50:08.515Z,77.05
2022-09-10T21:52:37.657Z,76.75
2022-09-10T21:55:09.390Z,77.56
2022-09-10T21:57:38.982Z,77.32
2022-09-10T22:00:14.287Z,77.82
2022-09-10T22:02:43.970Z,77.76
2022-09-10T22:05:18.211Z,77.79
2022-09-10T22:07:47.862Z,77.70
2022-09-10T22:10:19.807Z,78.54
2022-09-10T22:12:49.036Z,78.60
2022-09-10T22:15:18.281Z,78.76
2022-09-10T22:17:53.744Z,78.62
2022-09-10T22:20:22.919Z,78.85
2022-09-10T22:22:51.931Z,79.15
2022-09-10T22:25:23.053Z,79.59
2022-09-10T22:27:52.198Z,79.85
2022-09-10T22:30:21.860Z,79.57
2022-09-10T22:32:58.460Z,79.91
2022-09-10T22:35:27.930Z,79.84
2022-09-10T22:37:57.845Z,80.57
2022-09-10T22:40:29.590Z,80.95
2022-09-10T22:42:58.726Z,80.51
2022-09-10T22:45:27.850Z,80.98
2022-09-10T22:47:56.963Z,81.13
2022-09-10T22:50:26.541Z,80.92
2022-09-10T22:52:56.899Z,81.03
2022-09-10T22:55:26.095Z,80.64
2022-09-10T22:57:57.134Z,81.27
2022-09-10T23:00:26.408Z,80.85
2022-09-10T23:02:56.060Z,81.13
2022-09-10T23:05:25.172Z,81.75
2022-09-10T23:07:54.281Z,82.27
2022-09-10T23:10:23.719Z,82.20
2022-09-10T23:12:52.855Z,82.29
2022-09-10T23:15:24.249Z,82.26
2022-09-10T23:17:55.675Z,82.09
2022-09-10T23:20:26.112Z,81.96
2022-09-10T23:22:55.262Z,82.74
2022-09-10T23:25:29.337Z,83.71
2022-09-10T23:28:07.173Z,83.52
2022-09-10T23:30:38.481Z,84.05
2022-09-10T23:33:13.246Z,84.01
2022-09-10T23:35:47.461Z,84.28
2022-09-10T23:38:22.123Z,84.42
2022-09-10T23:43:26.658Z,85.06
2022-09-10T23:45:57.810Z,85.98
2022-09-10T23:48:27.852Z,85.31
2022-09-10T23:50:57.306Z,85.27
2022-09-10T23:53:29.081Z,85.74
2022-09-10T23:55:58.894Z,87.30
2022-09-10T23:58:27.989Z,85.54
